Time;durP1;ratioP1;P1;durP2;ratioP2;P2;SDS_P1;SDS_P2;PMS_P1;PMS_P2;Temp;Humidity;BMP_temperature;BMP_pressure;BME280_temperature;BME280_humidity;BME280_pressure;Samples;Min_cycle;Max_cycle;Signal;HPM_P1;HPM_P2
2021/12/28 00:00:31;;;;;;;11.82;2.40;;;5.70;98.00;;;;;;5018304;28;20034;-76
2021/12/28 00:02:57;;;;;;;13.90;2.28;;;5.70;98.00;;;;;;5014895;28;20034;-76
2021/12/28 00:05:24;;;;;;;11.07;2.75;;;5.70;98.00;;;;;;5015775;28;20045;-75
2021/12/28 00:07:51;;;;;;;14.57;2.50;;;5.60;98.00;;;;;;5016279;28;20653;-76
2021/12/28 00:10:18;;;;;;;12.43;2.60;;;5.50;98.00;;;;;;5014790;28;20437;-76
2021/12/28 00:12:45;;;;;;;11.02;2.60;;;5.70;98.00;;;;;;5027277;28;20037;-76
2021/12/28 00:18:01;;;;;;;16.25;2.47;;;5.70;98.00;;;;;;5014603;28;20045;-75
2021/12/28 00:20:28;;;;;;;14.48;2.65;;;5.80;98.00;;;;;;5019083;28;20083;-75
2021/12/28 00:22:54;;;;;;;12.43;2.55;;;6.00;98.00;;;;;;5013976;28;20095;-76
2021/12/28 00:25:20;;;;;;;16.52;2.92;;;6.20;98.00;;;;;;5009946;28;20105;-75
2021/12/28 00:27:46;;;;;;;13.80;2.83;;;6.40;98.00;;;;;;5011692;28;20172;-75
2021/12/28 00:30:12;;;;;;;17.17;4.60;;;6.50;98.00;;;;;;5013688;28;20044;-75
2021/12/28 00:32:39;;;;;;;8.98;2.30;;;6.50;98.00;;;;;;5015981;28;20033;-75
2021/12/28 00:35:05;;;;;;;12.32;2.50;;;6.50;98.00;;;;;;5021234;28;20318;-75
2021/12/28 00:37:31;;;;;;;16.15;3.00;;;6.50;98.00;;;;;;5035725;28;20030;-75
2021/12/28 00:39:57;;;;;;;15.63;2.75;;;6.60;98.00;;;;;;5008441;28;20062;-76
2021/12/28 00:42:23;;;;;;;16.23;3.63;;;6.70;98.00;;;;;;5015817;28;20123;-75
2021/12/28 00:44:49;;;;;;;15.82;3.05;;;6.80;98.00;;;;;;5014485;28;20064;-77
2021/12/28 00:47:15;;;;;;;12.75;2.55;;;6.80;98.00;;;;;;5018097;28;20026;-75
2021/12/28 00:49:41;;;;;;;12.13;2.53;;;6.80;98.00;;;;;;5019719;28;20109;-76
2021/12/28 00:52:07;;;;;;;15.48;2.90;;;6.80;98.00;;;;;;5013648;28;20038;-77
2021/12/28 00:54:33;;;;;;;14.75;2.63;;;6.70;98.00;;;;;;5013653;28;20033;-76
2021/12/28 00:57:01;;;;;;;17.70;2.88;;;6.70;98.00;;;;;;5012866;28;20130;-75
2021/12/28 00:59:28;;;;;;;18.52;3.13;;;6.60;98.00;;;;;;5014761;28;20113;-75
2021/12/28 01:01:55;;;;;;;14.95;3.33;;;6.50;98.00;;;;;;5013324;28;20033;-77
2021/12/28 01:04:21;;;;;;;17.92;3.17;;;6.60;98.00;;;;;;5021128;28;20052;-75
2021/12/28 01:06:50;;;;;;;14.07;3.92;;;6.60;98.00;;;;;;5017653;28;20057;-74
2021/12/28 01:09:16;;;;;;;15.52;3.38;;;6.50;98.00;;;;;;5013801;28;20026;-74
2021/12/28 01:11:42;;;;;;;17.45;2.95;;;6.40;98.00;;;;;;5012297;28;20037;-74
2021/12/28 01:14:08;;;;;;;21.80;3.67;;;6.30;98.00;;;;;;5045539;28;20500;-74
2021/12/28 01:16:37;;;;;;;11.90;2.65;;;6.20;98.00;;;;;;5003614;28;20033;-77
2021/12/28 01:19:05;;;;;;;13.52;2.67;;;6.10;98.00;;;;;;5017941;28;20029;-74
2021/12/28 01:21:31;;;;;;;14.98;2.70;;;6.10;98.00;;;;;;5018832;28;20022;-74
2021/12/28 01:23:57;;;;;;;19.92;3.05;;;5.90;98.00;;;;;;5016985;28;20344;-74
2021/12/28 01:26:23;;;;;;;23.90;3.50;;;5.80;98.00;;;;;;5017487;28;20026;-74
2021/12/28 01:28:49;;;;;;;12.80;3.30;;;5.80;98.00;;;;;;5036003;28;20800;-75
2021/12/28 01:31:15;;;;;;;15.73;3.00;;;5.80;98.00;;;;;;5015890;28;20030;-75
2021/12/28 01:33:40;;;;;;;13.48;2.60;;;5.90;98.00;;;;;;5017412;28;20609;-74
2021/12/28 01:36:06;;;;;;;15.07;2.95;;;5.80;98.00;;;;;;5017267;28;20127;-75
2021/12/28 01:38:32;;;;;;;11.63;2.90;;;5.90;98.00;;;;;;5012175;28;20026;-76
2021/12/28 01:40:58;;;;;;;11.43;2.50;;;5.90;98.00;;;;;;5015105;28;20492;-74
2021/12/28 01:43:24;;;;;;;15.43;2.70;;;5.90;98.00;;;;;;5017663;28;20033;-76
2021/12/28 01:45:57;;;;;;;19.67;3.85;;;5.90;98.00;;;;;;5011966;28;20516;-76
2021/12/28 01:48:32;;;;;;;16.65;2.72;;;5.80;98.00;;;;;;5015519;28;20030;-75
2021/12/28 01:51:03;;;;;;;11.50;2.53;;;5.90;98.00;;;;;;5048900;28;20115;-75
2021/12/28 01:53:30;;;;;;;12.18;2.85;;;5.90;98.00;;;;;;5017437;28;20184;-74
2021/12/28 01:56:02;;;;;;;21.52;3.75;;;6.00;98.00;;;;;;5016173;28;20072;-74
2021/12/28 01:58:28;;;;;;;13.73;3.72;;;6.30;98.00;;;;;;5017426;28;20022;-74
2021/12/28 02:00:55;;;;;;;13.63;2.38;;;6.40;98.00;;;;;;5017122;28;20030;-75
2021/12/28 02:03:23;;;;;;;11.55;2.53;;;6.30;98.00;;;;;;5003222;28;20027;-74
2021/12/28 02:05:50;;;;;;;14.52;2.10;;;6.20;98.00;;;;;;5014124;28;20026;-74
2021/12/28 02:08:16;;;;;;;11.68;3.15;;;6.40;98.00;;;;;;5030798;28;20025;-75
2021/12/28 02:10:44;;;;;;;11.55;3.03;;;6.40;98.00;;;;;;5017726;28;20109;-74
2021/12/28 02:13:10;;;;;;;7.20;2.17;;;6.30;98.00;;;;;;5017500;28;20715;-75
2021/12/28 02:15:37;;;;;;;7.10;1.92;;;6.20;98.00;;;;;;5016968;28;20054;-75
2021/12/28 02:18:05;;;;;;;9.27;2.10;;;6.20;98.00;;;;;;5041098;28;20088;-75
2021/12/28 02:20:31;;;;;;;11.90;2.42;;;6.40;98.00;;;;;;5017796;28;20022;-75
2021/12/28 02:22:58;;;;;;;8.20;2.42;;;6.40;98.00;;;;;;5015294;28;20021;-74
2021/12/28 02:25:23;;;;;;;14.45;2.60;;;6.50;98.00;;;;;;5015922;28;20030;-74
2021/12/28 02:27:50;;;;;;;13.10;2.95;;;6.50;98.00;;;;;;5016907;28;20823;-75
2021/12/28 02:30:18;;;;;;;10.90;2.42;;;6.50;98.00;;;;;;5015249;28;20029;-74
2021/12/28 02:32:46;;;;;;;10.82;2.05;;;6.50;98.00;;;;;;5016536;28;20019;-75
2021/12/28 02:35:16;;;;;;;12.02;2.00;;;6.50;98.00;;;;;;5016763;28;20167;-74
2021/12/28 02:37:42;;;;;;;11.10;2.75;;;6.50;98.00;;;;;;5014969;28;20034;-74
2021/12/28 02:40:10;;;;;;;10.00;1.83;;;6.50;98.00;;;;;;5014989;28;20040;-75
2021/12/28 02:42:36;;;;;;;9.75;2.10;;;6.40;98.00;;;;;;5014795;28;20030;-75
2021/12/28 02:45:09;;;;;;;9.48;2.35;;;6.40;98.00;;;;;;5016851;28;20308;-75
2021/12/28 02:47:37;;;;;;;6.75;1.92;;;6.40;98.00;;;;;;5016523;28;20117;-73
2021/12/28 02:50:07;;;;;;;9.85;1.98;;;6.40;98.00;;;;;;5027695;28;20026;-75
2021/12/28 02:52:36;;;;;;;6.65;1.88;;;6.40;98.00;;;;;;5014231;28;20022;-74
2021/12/28 02:55:04;;;;;;;8.32;2.28;;;6.40;98.00;;;;;;5014234;28;20030;-75
2021/12/28 02:57:31;;;;;;;11.45;2.15;;;6.40;98.00;;;;;;5014036;28;20529;-75
2021/12/28 02:59:56;;;;;;;10.07;2.20;;;6.30;98.00;;;;;;5016308;28;20084;-74
2021/12/28 03:02:22;;;;;;;9.68;2.13;;;6.30;98.00;;;;;;5009214;28;20034;-75
2021/12/28 03:04:48;;;;;;;6.97;1.85;;;6.20;98.00;;;;;;5016790;28;20080;-75
2021/12/28 03:07:13;;;;;;;7.78;1.98;;;6.20;98.00;;;;;;5016475;28;20030;-75
2021/12/28 03:09:39;;;;;;;7.25;1.90;;;6.30;98.00;;;;;;5016909;28;20060;-75
2021/12/28 03:12:06;;;;;;;6.80;2.80;;;6.30;98.00;;;;;;5013677;28;20065;-75
2021/12/28 03:14:31;;;;;;;6.78;2.50;;;6.40;98.00;;;;;;5015557;28;20057;-75
2021/12/28 03:16:57;;;;;;;10.60;2.75;;;6.40;98.00;;;;;;5016203;28;20314;-75
2021/12/28 03:19:23;;;;;;;6.32;1.90;;;6.60;98.00;;;;;;5019595;28;20030;-76
2021/12/28 03:21:50;;;;;;;5.93;1.83;;;6.80;98.00;;;;;;5015956;28;20026;-76
2021/12/28 03:24:17;;;;;;;6.07;1.83;;;6.90;98.00;;;;;;5014946;28;20026;-74
2021/12/28 03:26:44;;;;;;;6.70;1.83;;;7.00;98.00;;;;;;5003598;28;20105;-75
2021/12/28 03:29:10;;;;;;;8.68;1.95;;;7.10;98.00;;;;;;5014879;28;20371;-77
2021/12/28 03:31:36;;;;;;;5.20;1.88;;;7.10;98.00;;;;;;5016933;28;20088;-75
2021/12/28 03:34:02;;;;;;;7.82;1.90;;;7.30;98.00;;;;;;5011155;28;20061;-74
2021/12/28 03:36:29;;;;;;;4.70;1.48;;;7.30;98.00;;;;;;5014373;28;20477;-75
2021/12/28 03:38:57;;;;;;;5.72;1.70;;;7.30;98.00;;;;;;5016028;28;20026;-76
2021/12/28 03:41:27;;;;;;;10.55;1.90;;;7.30;98.00;;;;;;5004389;28;20132;-76
2021/12/28 03:43:55;;;;;;;5.75;1.60;;;7.20;98.00;;;;;;5016080;28;20079;-76
2021/12/28 03:46:23;;;;;;;4.65;1.50;;;7.20;98.00;;;;;;5015752;28;20376;-75
2021/12/28 03:48:48;;;;;;;7.15;1.70;;;7.30;98.00;;;;;;5016692;28;20124;-76
2021/12/28 03:51:14;;;;;;;5.60;1.80;;;7.30;98.00;;;;;;5019921;28;20423;-74
2021/12/28 03:53:41;;;;;;;4.72;1.60;;;7.20;98.00;;;;;;5014756;28;20087;-74
2021/12/28 03:56:09;;;;;;;12.20;2.92;;;7.20;98.00;;;;;;5016475;28;20327;-75
2021/12/28 03:58:36;;;;;;;6.95;1.40;;;7.20;98.00;;;;;;5016345;28;20030;-75
2021/12/28 04:01:07;;;;;;;3.72;1.55;;;7.30;98.00;;;;;;5014779;28;20156;-74
2021/12/28 04:03:33;;;;;;;5.38;1.40;;;7.30;98.00;;;;;;5013178;28;20034;-76
2021/12/28 04:06:04;;;;;;;5.78;1.52;;;7.30;98.00;;;;;;5018191;28;20056;-75
2021/12/28 04:08:30;;;;;;;3.85;1.38;;;7.40;98.00;;;;;;5014174;28;20030;-75
2021/12/28 04:11:12;;;;;;;5.65;1.42;;;7.40;98.00;;;;;;5014574;28;20322;-75
2021/12/28 04:13:38;;;;;;;5.60;1.95;;;7.30;98.00;;;;;;5014425;28;20355;-75
2021/12/28 04:16:04;;;;;;;7.47;1.80;;;7.30;98.00;;;;;;5005425;28;20041;-76
2021/12/28 04:18:30;;;;;;;6.50;2.33;;;7.30;98.00;;;;;;5014999;28;20046;-76
2021/12/28 04:20:56;;;;;;;7.80;2.10;;;7.30;98.00;;;;;;5013617;28;20022;-76
2021/12/28 04:23:22;;;;;;;5.22;1.80;;;7.30;98.00;;;;;;5013890;28;20038;-76
2021/12/28 04:25:48;;;;;;;5.03;1.50;;;7.10;98.00;;;;;;5013487;28;20032;-76
2021/12/28 04:28:13;;;;;;;4.57;1.60;;;7.00;98.00;;;;;;5007518;28;20327;-76
2021/12/28 04:30:40;;;;;;;7.22;1.85;;;7.00;98.00;;;;;;5012085;28;20026;-76
2021/12/28 04:33:11;;;;;;;4.70;1.63;;;6.90;98.00;;;;;;5016955;28;20021;-76
2021/12/28 04:35:37;;;;;;;6.25;1.73;;;7.00;98.00;;;;;;5017816;28;20031;-77
2021/12/28 04:38:03;;;;;;;4.60;1.80;;;7.10;98.00;;;;;;5012359;28;20041;-75
2021/12/28 04:40:29;;;;;;;5.45;1.83;;;7.20;98.00;;;;;;5014979;28;20029;-77
2021/12/28 04:42:55;;;;;;;6.32;1.50;;;7.20;98.00;;;;;;5015580;28;20033;-76
2021/12/28 04:45:21;;;;;;;6.18;1.70;;;7.10;98.00;;;;;;5014301;28;20037;-76
2021/12/28 04:47:46;;;;;;;4.28;2.13;;;7.00;98.00;;;;;;5014688;28;20061;-76
2021/12/28 04:50:13;;;;;;;6.10;1.80;;;6.80;98.00;;;;;;5006747;28;20030;-75
2021/12/28 04:52:40;;;;;;;4.63;1.60;;;6.80;98.00;;;;;;5012505;28;20038;-76
2021/12/28 04:55:17;;;;;;;6.03;1.70;;;6.80;98.00;;;;;;5013987;28;20034;-76
2021/12/28 04:57:47;;;;;;;5.47;2.35;;;6.80;98.00;;;;;;5008149;28;20105;-78
2021/12/28 05:00:19;;;;;;;4.25;1.80;;;6.80;98.00;;;;;;5014034;28;20037;-77
2021/12/28 05:02:46;;;;;;;6.75;2.13;;;6.80;98.00;;;;;;5014503;28;20030;-76
2021/12/28 05:05:15;;;;;;;3.15;1.60;;;6.80;98.00;;;;;;5017508;28;20025;-75
2021/12/28 05:07:41;;;;;;;4.10;1.73;;;6.80;98.00;;;;;;5011529;28;20037;-77
2021/12/28 05:10:07;;;;;;;5.20;1.77;;;6.80;98.00;;;;;;5011533;28;20029;-76
2021/12/28 05:12:33;;;;;;;7.13;2.00;;;6.80;98.00;;;;;;5015527;28;20061;-76
2021/12/28 05:15:00;;;;;;;5.93;2.10;;;6.80;98.00;;;;;;5009535;28;20070;-75
2021/12/28 05:17:27;;;;;;;4.40;1.80;;;6.90;98.00;;;;;;5014062;28;20172;-76
2021/12/28 05:19:53;;;;;;;4.30;1.70;;;6.80;98.00;;;;;;5013002;28;20091;-75
2021/12/28 05:22:19;;;;;;;4.65;2.13;;;6.80;98.00;;;;;;5013131;28;20053;-76
2021/12/28 05:24:45;;;;;;;5.43;2.38;;;6.70;98.00;;;;;;5018179;28;20753;-76
2021/12/28 05:27:10;;;;;;;9.27;5.15;;;6.80;98.00;;;;;;5014111;28;20034;-76
2021/12/28 05:29:37;;;;;;;5.25;2.22;;;6.70;98.00;;;;;;5014309;28;20554;-76
2021/12/28 05:32:03;;;;;;;4.82;1.90;;;6.70;98.00;;;;;;5014797;28;20056;-75
2021/12/28 05:34:29;;;;;;;10.23;4.45;;;6.80;98.00;;;;;;5015564;28;20033;-76
2021/12/28 05:36:55;;;;;;;12.20;6.13;;;6.80;98.00;;;;;;5012651;28;20022;-76
2021/12/28 05:39:21;;;;;;;5.93;2.85;;;6.70;98.00;;;;;;5010553;28;20044;-75
2021/12/28 05:41:46;;;;;;;10.93;6.07;;;6.80;98.00;;;;;;5013297;28;20034;-76
2021/12/28 05:44:12;;;;;;;10.05;5.47;;;6.90;98.00;;;;;;5011161;28;20415;-76
2021/12/28 05:46:38;;;;;;;5.47;2.97;;;6.90;98.00;;;;;;5031608;28;20092;-76
2021/12/28 05:49:03;;;;;;;6.07;2.75;;;6.90;98.00;;;;;;5013205;28;20072;-75
2021/12/28 05:51:29;;;;;;;4.60;2.28;;;7.00;98.00;;;;;;5014228;28;20026;-75
2021/12/28 05:53:55;;;;;;;3.25;1.60;;;7.00;98.00;;;;;;5014324;28;20487;-75
2021/12/28 05:56:21;;;;;;;6.72;4.10;;;7.00;98.00;;;;;;5013268;28;20418;-76
2021/12/28 05:58:46;;;;;;;11.00;6.82;;;7.10;98.00;;;;;;5014595;28;20061;-75
2021/12/28 06:01:12;;;;;;;5.60;2.60;;;7.10;98.00;;;;;;5013837;28;20477;-76
2021/12/28 06:03:38;;;;;;;4.88;2.55;;;7.10;98.00;;;;;;5017008;28;20034;-76
2021/12/28 06:06:03;;;;;;;12.10;8.30;;;7.30;98.00;;;;;;5017159;28;20033;-76
2021/12/28 06:08:29;;;;;;;4.10;1.83;;;7.30;98.00;;;;;;5015952;28;20120;-76
2021/12/28 06:10:55;;;;;;;7.40;3.70;;;7.40;98.00;;;;;;5014070;28;20048;-76
2021/12/28 06:13:20;;;;;;;11.90;7.00;;;7.40;98.00;;;;;;5017219;28;20034;-76
2021/12/28 06:15:54;;;;;;;4.28;2.20;;;7.30;98.00;;;;;;5017052;28;20041;-76
2021/12/28 06:18:19;;;;;;;4.63;1.83;;;7.20;98.00;;;;;;5020986;28;20026;-75
2021/12/28 06:20:45;;;;;;;3.58;1.80;;;7.20;98.00;;;;;;5015091;28;20034;-76
2021/12/28 06:23:12;;;;;;;2.97;1.48;;;7.30;98.00;;;;;;5016200;28;20319;-76
2021/12/28 06:25:38;;;;;;;2.78;1.40;;;7.30;98.00;;;;;;5015087;28;20030;-76
2021/12/28 06:28:04;;;;;;;4.30;1.50;;;7.30;98.00;;;;;;5017274;28;20030;-76
2021/12/28 06:30:30;;;;;;;4.18;1.30;;;7.40;98.00;;;;;;5015772;28;20037;-76
2021/12/28 06:32:56;;;;;;;2.40;1.10;;;7.40;98.00;;;;;;5017364;28;20022;-76
2021/12/28 06:35:22;;;;;;;2.05;1.10;;;7.50;98.00;;;;;;5016383;28;20033;-76
2021/12/28 06:37:47;;;;;;;1.50;0.93;;;7.50;98.00;;;;;;5015062;28;20065;-76
2021/12/28 06:40:13;;;;;;;3.55;1.17;;;7.60;98.00;;;;;;5031189;28;20022;-76
2021/12/28 06:42:39;;;;;;;2.28;1.08;;;7.60;98.00;;;;;;5017046;28;20022;-75
2021/12/28 06:45:06;;;;;;;1.83;1.00;;;7.60;98.00;;;;;;5004625;28;20026;-75
2021/12/28 06:47:34;;;;;;;2.22;1.08;;;7.70;98.00;;;;;;5031618;28;20036;-76
2021/12/28 06:50:00;;;;;;;1.58;1.00;;;7.80;98.00;;;;;;5018248;28;20080;-76
2021/12/28 06:52:25;;;;;;;1.40;0.80;;;7.80;98.00;;;;;;5021014;28;20026;-76
2021/12/28 06:54:51;;;;;;;1.10;0.80;;;7.80;98.00;;;;;;5016894;28;20030;-76
2021/12/28 06:57:17;;;;;;;1.92;0.93;;;7.80;98.00;;;;;;5015686;28;20407;-76
2021/12/28 06:59:44;;;;;;;1.48;0.80;;;7.90;98.00;;;;;;5020115;28;20076;-76
2021/12/28 07:02:11;;;;;;;1.33;0.88;;;8.00;98.00;;;;;;5016968;28;20026;-76
2021/12/28 07:04:37;;;;;;;1.83;0.88;;;7.90;98.00;;;;;;5016764;28;20025;-75
2021/12/28 07:07:04;;;;;;;2.97;1.00;;;7.80;98.00;;;;;;5014463;28;20819;-76
2021/12/28 07:09:30;;;;;;;1.83;0.95;;;7.90;98.00;;;;;;5017277;28;20030;-76
2021/12/28 07:11:55;;;;;;;1.67;0.95;;;7.90;98.00;;;;;;5017307;28;20429;-76
2021/12/28 07:14:21;;;;;;;1.65;0.80;;;7.80;98.00;;;;;;5017303;28;20045;-76
2021/12/28 07:16:47;;;;;;;0.90;0.70;;;7.80;98.00;;;;;;5015240;28;20022;-76
2021/12/28 07:19:12;;;;;;;2.00;0.90;;;7.80;98.00;;;;;;5033998;28;20065;-76
2021/12/28 07:21:39;;;;;;;1.17;0.80;;;7.90;98.00;;;;;;5021664;28;20030;-76
2021/12/28 07:24:09;;;;;;;0.80;0.70;;;7.90;98.00;;;;;;5015477;28;20319;-76
2021/12/28 07:26:36;;;;;;;1.45;0.70;;;7.90;98.00;;;;;;5016524;28;20022;-75
2021/12/28 07:29:03;;;;;;;1.95;0.88;;;7.90;98.00;;;;;;5016345;28;20034;-75
2021/12/28 07:31:28;;;;;;;1.83;0.80;;;7.90;98.00;;;;;;5023262;28;20053;-76
2021/12/28 07:33:54;;;;;;;1.40;0.70;;;7.90;98.00;;;;;;5015168;28;20461;-75
2021/12/28 07:36:20;;;;;;;1.42;0.90;;;7.90;98.00;;;;;;5004422;28;20037;-76
2021/12/28 07:38:46;;;;;;;1.08;0.70;;;7.90;98.00;;;;;;5015870;28;20113;-75
2021/12/28 07:41:13;;;;;;;1.00;0.70;;;7.90;98.00;;;;;;5024494;28;20022;-75
2021/12/28 07:43:39;;;;;;;0.65;0.60;;;8.10;98.00;;;;;;5017560;28;20037;-75
2021/12/28 07:46:04;;;;;;;0.80;0.80;;;8.10;98.00;;;;;;5016230;28;20322;-75
2021/12/28 07:48:30;;;;;;;1.25;0.70;;;8.00;98.00;;;;;;5017043;28;20069;-75
2021/12/28 07:50:56;;;;;;;5.10;2.05;;;8.00;98.00;;;;;;5023636;28;20081;-75
2021/12/28 07:53:22;;;;;;;4.90;2.45;;;8.00;98.00;;;;;;5017556;28;20030;-76
2021/12/28 07:55:48;;;;;;;5.05;1.75;;;7.90;98.00;;;;;;5015139;28;20330;-76
2021/12/28 07:58:14;;;;;;;1.13;0.75;;;7.90;98.00;;;;;;5016650;28;20029;-76
2021/12/28 08:00:40;;;;;;;0.60;0.60;;;7.90;98.00;;;;;;5016786;28;20022;-76
2021/12/28 08:03:06;;;;;;;1.02;0.70;;;7.90;98.00;;;;;;5019066;28;20036;-77
2021/12/28 08:05:33;;;;;;;1.63;0.80;;;8.00;98.00;;;;;;5016662;28;20033;-76
2021/12/28 08:07:59;;;;;;;1.15;0.70;;;7.90;98.00;;;;;;5014314;28;20049;-76
2021/12/28 08:10:26;;;;;;;0.60;0.60;;;7.90;98.00;;;;;;5015551;28;20033;-76
2021/12/28 08:12:54;;;;;;;0.70;0.68;;;7.90;98.00;;;;;;5017806;28;20335;-76
2021/12/28 08:15:20;;;;;;;0.80;0.70;;;7.90;98.00;;;;;;5020488;28;20121;-76
2021/12/28 08:17:46;;;;;;;0.90;0.70;;;7.90;98.00;;;;;;5013942;28;20072;-76
2021/12/28 08:20:13;;;;;;;2.00;0.80;;;7.90;98.00;;;;;;5015022;28;20064;-76
2021/12/28 08:22:40;;;;;;;0.98;0.73;;;8.00;98.00;;;;;;5029180;28;20018;-76
2021/12/28 08:25:09;;;;;;;0.60;0.60;;;8.00;98.00;;;;;;5015765;28;20033;-75
2021/12/28 08:27:34;;;;;;;0.80;0.68;;;8.10;98.00;;;;;;5015844;28;20057;-76
2021/12/28 08:30:00;;;;;;;0.60;0.60;;;8.20;98.00;;;;;;5015346;28;20086;-76
2021/12/28 08:32:26;;;;;;;0.60;0.60;;;8.20;98.00;;;;;;5019442;28;20037;-76
2021/12/28 08:34:51;;;;;;;0.90;0.70;;;8.30;98.00;;;;;;5035212;28;20026;-75
2021/12/28 08:37:18;;;;;;;1.05;0.63;;;8.40;98.00;;;;;;5019040;28;20108;-75
2021/12/28 08:39:44;;;;;;;1.02;0.70;;;8.50;98.00;;;;;;5041811;28;20061;-75
2021/12/28 08:42:10;;;;;;;0.75;0.70;;;8.50;98.00;;;;;;5019362;28;20524;-76
2021/12/28 08:44:35;;;;;;;0.98;0.70;;;8.60;98.00;;;;;;5015909;28;20017;-76
2021/12/28 08:47:01;;;;;;;0.90;0.70;;;8.60;98.00;;;;;;5016506;28;20094;-75
2021/12/28 08:49:27;;;;;;;1.65;0.70;;;8.60;98.00;;;;;;5016881;28;20026;-76
2021/12/28 08:51:54;;;;;;;1.77;0.70;;;8.80;98.00;;;;;;5014007;28;20354;-75
2021/12/28 08:54:20;;;;;;;0.60;0.60;;;8.80;98.00;;;;;;5014262;28;20092;-76
2021/12/28 08:56:46;;;;;;;0.50;0.50;;;8.90;98.00;;;;;;5015331;28;20497;-76
2021/12/28 08:59:13;;;;;;;0.60;0.60;;;8.90;98.00;;;;;;5015203;28;20029;-76
2021/12/28 09:01:40;;;;;;;1.00;0.60;;;9.00;98.00;;;;;;5015265;28;20022;-75
2021/12/28 09:04:05;;;;;;;1.13;0.60;;;9.10;98.00;;;;;;5014857;28;20446;-76
2021/12/28 09:06:31;;;;;;;0.82;0.60;;;9.20;98.00;;;;;;5015155;28;20025;-76
2021/12/28 09:08:57;;;;;;;0.68;0.60;;;9.20;98.00;;;;;;5013781;28;20438;-76
2021/12/28 09:11:23;;;;;;;0.65;0.60;;;9.20;98.00;;;;;;5015517;28;20083;-76
2021/12/28 09:13:48;;;;;;;0.70;0.60;;;9.40;98.00;;;;;;5015610;28;20034;-76
2021/12/28 09:16:14;;;;;;;0.60;0.60;;;9.50;98.00;;;;;;5013737;28;20018;-76
2021/12/28 09:18:40;;;;;;;0.50;0.50;;;9.60;98.00;;;;;;5015266;28;20419;-76
2021/12/28 09:21:06;;;;;;;0.75;0.60;;;9.60;98.00;;;;;;5015559;28;20022;-76
2021/12/28 09:23:32;;;;;;;1.00;0.60;;;9.60;98.00;;;;;;5014479;28;20026;-76
2021/12/28 09:25:58;;;;;;;0.70;0.60;;;9.60;98.00;;;;;;5019771;28;20073;-76
2021/12/28 09:28:23;;;;;;;0.85;0.60;;;9.70;98.00;;;;;;5015312;28;20053;-76
2021/12/28 09:30:49;;;;;;;0.77;0.63;;;9.70;98.00;;;;;;5013003;28;20057;-76
2021/12/28 09:33:15;;;;;;;0.80;0.60;;;9.80;98.00;;;;;;5014321;28;20034;-76
2021/12/28 09:35:41;;;;;;;2.50;1.33;;;9.80;98.00;;;;;;5014927;28;20026;-76
2021/12/28 09:38:07;;;;;;;1.17;0.70;;;9.70;98.00;;;;;;5020613;28;20114;-76
2021/12/28 09:40:34;;;;;;;0.60;0.60;;;9.70;98.00;;;;;;5018652;28;20470;-77
2021/12/28 09:43:02;;;;;;;2.08;0.82;;;9.70;98.00;;;;;;5017758;28;20022;-77
2021/12/28 09:45:28;;;;;;;1.67;0.70;;;9.80;98.00;;;;;;5016801;28;20481;-76
2021/12/28 09:47:54;;;;;;;1.10;0.82;;;9.90;98.00;;;;;;5018703;28;20041;-76
2021/12/28 09:50:20;;;;;;;2.60;0.80;;;10.00;98.00;;;;;;5017579;28;20044;-76
2021/12/28 09:52:49;;;;;;;1.77;0.85;;;10.00;98.00;;;;;;5017125;28;20097;-76
2021/12/28 09:55:17;;;;;;;0.68;0.60;;;10.10;98.00;;;;;;5017684;28;20026;-76
2021/12/28 09:57:44;;;;;;;0.63;0.60;;;10.10;98.00;;;;;;5018394;28;20034;-76
2021/12/28 10:00:11;;;;;;;1.02;0.60;;;10.10;98.00;;;;;;5017451;28;20017;-76
2021/12/28 10:02:37;;;;;;;1.35;0.60;;;10.10;98.00;;;;;;5018853;28;20018;-76
2021/12/28 10:05:17;;;;;;;0.50;0.50;;;10.10;98.00;;;;;;5033955;28;20022;-76
2021/12/28 10:07:56;;;;;;;0.50;0.50;;;10.10;98.00;;;;;;5016351;28;20435;-76
2021/12/28 10:10:29;;;;;;;1.48;0.80;;;10.10;98.00;;;;;;5018494;28;20113;-76
2021/12/28 10:12:58;;;;;;;1.40;0.85;;;10.10;98.00;;;;;;5017064;28;20022;-76
2021/12/28 10:15:27;;;;;;;1.85;0.80;;;10.30;98.00;;;;;;5018114;28;20065;-76
2021/12/28 10:17:57;;;;;;;0.93;0.60;;;10.30;98.00;;;;;;5018328;28;20038;-76
2021/12/28 10:20:37;;;;;;;0.80;0.60;;;10.40;98.00;;;;;;5018334;28;20437;-76
2021/12/28 10:23:06;;;;;;;0.50;0.50;;;10.40;98.00;;;;;;5017482;28;20354;-76
2021/12/28 10:25:35;;;;;;;1.30;0.77;;;10.40;98.00;;;;;;5018590;28;20032;-76
2021/12/28 10:28:08;;;;;;;1.33;0.80;;;10.40;98.00;;;;;;5018171;28;20030;-76
2021/12/28 10:30:38;;;;;;;1.35;0.70;;;10.40;98.00;;;;;;5017631;28;20030;-77
2021/12/28 10:33:10;;;;;;;1.10;0.70;;;10.40;98.00;;;;;;5033821;28;20022;-76
2021/12/28 10:35:52;;;;;;;0.80;0.60;;;10.50;98.00;;;;;;5033794;28;20057;-76
2021/12/28 10:38:22;;;;;;;0.52;0.52;;;10.40;98.00;;;;;;5022644;28;20339;-75
2021/12/28 10:40:51;;;;;;;0.50;0.50;;;10.40;98.00;;;;;;5017026;28;20025;-75
2021/12/28 10:43:22;;;;;;;1.70;0.80;;;10.30;98.00;;;;;;5016163;28;20113;-76
2021/12/28 10:46:06;;;;;;;2.45;1.05;;;10.30;98.00;;;;;;5016760;28;20022;-76
2021/12/28 10:48:37;;;;;;;0.73;0.60;;;10.30;98.00;;;;;;5013784;28;20037;-76
2021/12/28 10:51:03;;;;;;;1.05;0.60;;;10.40;98.00;;;;;;5017003;28;20076;-76
2021/12/28 10:56:31;;;;;;;0.93;0.50;;;10.50;98.00;;;;;;5009366;28;20060;-77
2021/12/28 10:58:58;;;;;;;2.40;1.17;;;10.50;98.00;;;;;;5015849;28;20034;-76
2021/12/28 11:01:31;;;;;;;2.72;1.20;;;10.50;98.00;;;;;;5017203;28;20417;-76
2021/12/28 11:04:03;;;;;;;1.63;0.80;;;10.50;98.00;;;;;;5015485;28;20030;-76
2021/12/28 11:06:31;;;;;;;3.00;0.68;;;10.50;98.00;;;;;;5017096;28;20041;-76
2021/12/28 11:09:19;;;;;;;3.00;1.40;;;10.60;98.00;;;;;;5015061;28;20514;-76
2021/12/28 11:11:46;;;;;;;0.70;0.50;;;10.70;98.00;;;;;;5016779;28;20331;-76
2021/12/28 11:14:25;;;;;;;0.70;0.57;;;10.70;98.00;;;;;;5016094;28;20042;-76
2021/12/28 11:16:52;;;;;;;0.57;0.57;;;10.70;98.00;;;;;;5016909;28;20029;-76
2021/12/28 11:19:25;;;;;;;0.82;0.60;;;10.70;98.00;;;;;;5016706;28;20030;-76
2021/12/28 11:21:54;;;;;;;0.50;0.50;;;10.80;98.00;;;;;;5016836;28;20124;-76
2021/12/28 11:24:20;;;;;;;1.10;0.70;;;10.70;98.00;;;;;;5010068;28;20423;-76
2021/12/28 11:26:50;;;;;;;2.20;0.80;;;10.80;98.00;;;;;;5017113;28;20028;-76
2021/12/28 11:29:19;;;;;;;2.08;0.77;;;10.90;98.00;;;;;;5017013;28;20028;-76
2021/12/28 11:31:51;;;;;;;0.70;0.50;;;10.90;98.00;;;;;;5016468;28;20426;-76
2021/12/28 11:34:21;;;;;;;0.68;0.50;;;11.10;97.90;;;;;;5016653;28;20061;-76
2021/12/28 11:36:52;;;;;;;4.25;1.77;;;11.30;97.30;;;;;;5017679;28;20037;-76
2021/12/28 11:39:22;;;;;;;0.68;0.50;;;11.40;97.00;;;;;;5015025;28;20026;-77
2021/12/28 11:41:50;;;;;;;3.42;1.38;;;11.60;96.70;;;;;;5016781;28;20026;-76
2021/12/28 11:44:18;;;;;;;9.02;3.55;;;11.60;96.50;;;;;;5015636;28;20036;-76
2021/12/28 11:46:44;;;;;;;1.13;0.70;;;11.50;96.60;;;;;;5011557;28;20030;-76
2021/12/28 11:49:12;;;;;;;0.57;0.40;;;11.30;96.90;;;;;;5015077;28;20084;-76
2021/12/28 11:51:39;;;;;;;4.45;1.83;;;11.30;97.20;;;;;;5015868;28;20030;-76
2021/12/28 11:54:08;;;;;;;0.45;0.45;;;11.40;97.30;;;;;;5015312;28;20024;-76
2021/12/28 11:56:37;;;;;;;0.60;0.60;;;11.50;96.30;;;;;;5016205;28;20037;-76
2021/12/28 11:59:06;;;;;;;1.38;0.73;;;11.40;96.40;;;;;;5016290;28;20366;-76
2021/12/28 12:01:49;;;;;;;5.20;3.17;;;11.40;97.00;;;;;;5015235;28;20067;-76
2021/12/28 12:04:30;;;;;;;4.90;2.00;;;11.50;97.00;;;;;;5015038;28;20026;-76
2021/12/28 12:07:15;;;;;;;1.15;0.70;;;11.60;96.60;;;;;;5019415;28;20046;-77
2021/12/28 12:09:50;;;;;;;4.97;1.95;;;11.50;96.10;;;;;;5018556;28;20033;-77
2021/12/28 12:12:19;;;;;;;7.55;2.80;;;11.40;96.30;;;;;;5017406;28;20029;-76
2021/12/28 12:14:50;;;;;;;1.98;1.00;;;11.40;96.10;;;;;;5016532;28;20112;-75
2021/12/28 12:17:31;;;;;;;0.98;0.65;;;11.30;96.10;;;;;;5016008;28;20088;-75
2021/12/28 12:20:00;;;;;;;1.05;0.63;;;11.40;96.20;;;;;;5013834;28;20492;-76
2021/12/28 12:22:37;;;;;;;0.65;0.50;;;11.30;96.40;;;;;;5013357;28;20308;-75
2021/12/28 12:25:15;;;;;;;0.50;0.50;;;11.30;96.20;;;;;;5011912;28;20019;-76
2021/12/28 12:27:50;;;;;;;1.80;0.93;;;11.30;96.60;;;;;;5011552;28;20036;-76
2021/12/28 12:30:18;;;;;;;2.72;0.65;;;11.30;96.40;;;;;;5014771;28;20032;-76
2021/12/28 12:33:07;;;;;;;2.45;1.10;;;11.30;96.50;;;;;;5020753;28;20030;-76
2021/12/28 12:35:50;;;;;;;1.08;0.68;;;11.20;96.70;;;;;;5027723;28;20026;-76
2021/12/28 12:38:16;;;;;;;1.05;0.68;;;11.30;96.40;;;;;;5007984;28;20087;-76
2021/12/28 12:41:15;;;;;;;1.33;0.70;;;11.30;95.90;;;;;;5014286;28;20022;-75
2021/12/28 12:43:45;;;;;;;1.95;0.90;;;11.30;96.20;;;;;;5018441;28;20022;-76
2021/12/28 12:46:25;;;;;;;2.20;0.68;;;11.20;95.80;;;;;;5017057;28;20151;-75
2021/12/28 12:48:55;;;;;;;2.13;0.80;;;11.20;95.70;;;;;;5013431;28;20444;-75
2021/12/28 12:51:21;;;;;;;3.42;1.58;;;11.10;95.80;;;;;;5016594;28;20084;-75
2021/12/28 12:54:01;;;;;;;4.20;1.73;;;11.10;96.30;;;;;;5013368;28;20033;-76
2021/12/28 12:56:32;;;;;;;4.28;1.27;;;11.00;96.70;;;;;;5012414;28;20330;-75
2021/12/28 12:59:01;;;;;;;2.40;1.00;;;11.00;96.60;;;;;;5014661;28;20026;-75
2021/12/28 13:01:27;;;;;;;3.22;1.35;;;10.90;96.20;;;;;;5014497;28;20090;-75